首页
METAR-TAF:

METAR-TAF

机场 :

Blue River, 不列颠哥伦比亚, 加拿大

纬度: 52-08N, 经度: 119-18W, 海拔: 679米

当前天气观测

该预报发布于59分钟前的21:00 UTC
风速4节,风向,在东北南转南东之间变化
温度 23°C
湿度 23%
气压 1015 hPa
能見度: 24.1公里
天空无云

METAR: CYCP 262100Z 10004KT 050V160 15SM SKC 23/01 A2996 RMK FU ALQDS SLP149 DENSITY ALT 3700FT

时间: 14:59 (21:59 UTC)


TAF: 丢失

超过4000个机场的气象观测和天气预报(METAR&TAF报告)。

可查询的气象台以黄色和红色小点在地图上表示。

将鼠标移到小点上方,可查看气象台名称。

然后点击查看天气观测和预报。

如需切换地图:点击带黑十字的绿色按钮放大地图;点击带横线的绿色按钮缩小地图;或者点击绿色箭头查看邻近地区的地图。


METAR-TAF: